Time;durP1;ratioP1;P1;durP2;ratioP2;P2;SDS_P1;SDS_P2;PMS_P1;PMS_P2;Temp;Humidity;BMP_temperature;BMP_pressure;BME280_temperature;BME280_humidity;BME280_pressure;Samples;Min_cycle;Max_cycle;Signal;HPM_P1;HPM_P2
2021/06/26 00:01:10;;;;;;;12.23;11.03;;;17.40;80.00;;;;;;5059255;28;20454;-42
2021/06/26 00:03:37;;;;;;;11.90;10.70;;;17.40;80.10;;;;;;5055637;28;20450;-41
2021/06/26 00:06:04;;;;;;;12.60;9.93;;;17.40;80.30;;;;;;5063408;28;20465;-41
2021/06/26 00:08:31;;;;;;;10.93;9.77;;;17.40;80.40;;;;;;5057209;28;20446;-42
2021/06/26 00:10:58;;;;;;;15.37;10.93;;;17.30;80.50;;;;;;5087840;28;20485;-41
2021/06/26 00:13:26;;;;;;;12.20;10.80;;;17.30;80.50;;;;;;5058358;28;20657;-41
2021/06/26 00:15:53;;;;;;;12.57;11.10;;;17.30;80.70;;;;;;5057043;28;20441;-41
2021/06/26 00:18:19;;;;;;;11.83;10.00;;;17.20;80.80;;;;;;5086980;28;20854;-41
2021/06/26 00:20:46;;;;;;;14.27;11.00;;;17.20;80.70;;;;;;5056637;28;20493;-41
2021/06/26 00:23:13;;;;;;;13.67;12.23;;;17.20;80.80;;;;;;5057848;28;20946;-42
2021/06/26 00:25:40;;;;;;;11.53;10.33;;;17.20;80.80;;;;;;5058945;28;20450;-41
2021/06/26 00:28:08;;;;;;;14.73;9.80;;;17.20;80.80;;;;;;5087015;28;20815;-42
2021/06/26 00:30:35;;;;;;;11.07;10.00;;;17.20;80.70;;;;;;5062947;28;20482;-42
2021/06/26 00:33:02;;;;;;;15.30;9.60;;;17.20;80.80;;;;;;5082564;28;20450;-42
2021/06/26 00:35:29;;;;;;;10.70;9.40;;;17.20;80.80;;;;;;5057743;28;20459;-41
2021/06/26 00:37:56;;;;;;;9.57;8.67;;;17.10;80.70;;;;;;5055666;28;20517;-41
2021/06/26 00:40:22;;;;;;;12.90;9.70;;;17.10;80.70;;;;;;5086575;28;20453;-41
2021/06/26 00:42:49;;;;;;;10.83;9.73;;;17.10;80.70;;;;;;5056557;28;20469;-42
2021/06/26 00:45:17;;;;;;;9.97;8.73;;;17.00;80.70;;;;;;5057656;28;20458;-41
2021/06/26 00:47:45;;;;;;;9.40;8.20;;;17.00;80.70;;;;;;5058560;28;20446;-42
2021/06/26 00:50:20;;;;;;;9.70;8.70;;;17.00;80.70;;;;;;5088204;28;20453;-42
2021/06/26 00:52:47;;;;;;;9.27;8.37;;;16.90;80.60;;;;;;5085203;28;20449;-42
2021/06/26 00:55:14;;;;;;;22.97;9.30;;;16.90;80.60;;;;;;5059845;28;20900;-42
2021/06/26 00:57:44;;;;;;;9.23;8.23;;;16.90;80.50;;;;;;5057483;28;20462;-42
2021/06/26 01:00:12;;;;;;;10.53;9.10;;;16.80;80.50;;;;;;5054259;28;20467;-42
2021/06/26 01:02:40;;;;;;;10.23;9.13;;;16.80;80.40;;;;;;5057175;28;20939;-42
2021/06/26 01:05:08;;;;;;;10.50;9.40;;;16.70;80.50;;;;;;5057767;28;20472;-42
2021/06/26 01:07:35;;;;;;;8.27;7.57;;;16.70;80.70;;;;;;5066918;28;20972;-42
2021/06/26 01:10:03;;;;;;;10.30;8.77;;;16.70;80.70;;;;;;5059551;28;20821;-42
2021/06/26 01:12:30;;;;;;;10.00;8.60;;;16.70;80.70;;;;;;5061936;28;20485;-42
2021/06/26 01:14:57;;;;;;;19.83;9.73;;;16.70;80.70;;;;;;5055874;28;20974;-42
2021/06/26 01:17:23;;;;;;;8.80;7.90;;;16.60;80.70;;;;;;5058426;28;20461;-41
2021/06/26 01:19:50;;;;;;;11.97;8.37;;;16.60;80.60;;;;;;5062434;28;20458;-42
2021/06/26 01:22:21;;;;;;;11.57;10.00;;;16.60;80.70;;;;;;5061216;28;20467;-42
2021/06/26 01:24:53;;;;;;;16.93;10.53;;;16.50;80.90;;;;;;5086252;27;20465;-41
2021/06/26 01:27:20;;;;;;;9.97;8.77;;;16.50;81.10;;;;;;5060013;28;20450;-42
2021/06/26 01:29:49;;;;;;;12.90;9.20;;;16.50;81.20;;;;;;5058849;28;20466;-42
2021/06/26 01:32:17;;;;;;;13.70;9.77;;;16.50;81.20;;;;;;5061053;28;20999;-42
2021/06/26 01:34:45;;;;;;;11.03;8.63;;;16.50;81.30;;;;;;5047251;28;20453;-41
2021/06/26 01:37:12;;;;;;;12.40;9.00;;;16.50;81.30;;;;;;5060042;28;20466;-42
2021/06/26 01:39:40;;;;;;;10.13;9.13;;;16.50;81.40;;;;;;5059249;28;20459;-42
2021/06/26 01:42:07;;;;;;;10.80;9.70;;;16.40;81.40;;;;;;5061142;28;20475;-42
2021/06/26 01:44:34;;;;;;;10.17;9.17;;;16.40;81.50;;;;;;5057055;28;20465;-42
2021/06/26 01:47:04;;;;;;;11.00;9.43;;;16.40;81.40;;;;;;5060098;28;20485;-42
2021/06/26 01:49:31;;;;;;;9.10;8.20;;;16.40;81.40;;;;;;5061084;28;20903;-42
2021/06/26 01:51:57;;;;;;;11.70;9.80;;;16.30;81.50;;;;;;5057370;28;20488;-42
2021/06/26 01:54:25;;;;;;;10.43;9.27;;;16.30;81.60;;;;;;5061374;28;20461;-42
2021/06/26 01:56:51;;;;;;;10.20;9.20;;;16.30;81.60;;;;;;5060981;28;20454;-42
2021/06/26 01:59:18;;;;;;;11.00;9.03;;;16.30;81.70;;;;;;5090192;27;20974;-42
2021/06/26 02:01:45;;;;;;;10.63;9.53;;;16.30;81.70;;;;;;5061790;28;20489;-41
2021/06/26 02:04:12;;;;;;;10.57;9.47;;;16.30;81.90;;;;;;5061194;28;20484;-41
2021/06/26 02:06:38;;;;;;;10.77;9.40;;;16.20;82.00;;;;;;5062448;28;20464;-42
2021/06/26 02:09:07;;;;;;;12.80;9.83;;;16.20;82.00;;;;;;5059472;28;20960;-42
2021/06/26 02:11:35;;;;;;;10.43;9.30;;;16.20;82.10;;;;;;5058587;28;20509;-41
2021/06/26 02:14:02;;;;;;;10.83;9.73;;;16.20;82.20;;;;;;5063237;28;20821;-42
2021/06/26 02:16:29;;;;;;;11.23;10.10;;;16.20;82.20;;;;;;5058082;28;20462;-41
2021/06/26 02:18:56;;;;;;;12.03;10.77;;;16.20;82.20;;;;;;5061491;28;20938;-42
2021/06/26 02:21:22;;;;;;;12.50;11.20;;;16.20;82.10;;;;;;5090849;27;20465;-41
2021/06/26 02:23:50;;;;;;;11.87;9.90;;;16.10;82.20;;;;;;5064272;28;20880;-41
2021/06/26 02:26:17;;;;;;;16.00;12.77;;;16.20;82.30;;;;;;5061324;28;20951;-42
2021/06/26 02:28:43;;;;;;;12.67;11.33;;;16.10;82.40;;;;;;5089601;28;20461;-41
2021/06/26 02:31:10;;;;;;;13.27;10.10;;;16.10;82.50;;;;;;5060297;28;20481;-42
2021/06/26 02:33:37;;;;;;;11.30;10.00;;;16.10;82.50;;;;;;5057762;28;20484;-41
2021/06/26 02:36:04;;;;;;;13.13;11.70;;;16.00;82.40;;;;;;5062326;28;20468;-42
2021/06/26 02:38:31;;;;;;;14.73;10.70;;;16.00;82.60;;;;;;5062581;28;20465;-41
2021/06/26 02:40:58;;;;;;;13.53;9.47;;;16.10;82.70;;;;;;5058858;28;20457;-41
2021/06/26 02:43:24;;;;;;;15.03;9.80;;;16.00;82.80;;;;;;5059990;28;20886;-41
2021/06/26 02:45:51;;;;;;;12.40;10.00;;;16.00;82.80;;;;;;5056729;28;20451;-42
2021/06/26 02:48:18;;;;;;;12.03;10.60;;;16.00;82.90;;;;;;5064692;28;20447;-42
2021/06/26 02:50:45;;;;;;;12.80;10.90;;;16.00;82.90;;;;;;5060649;28;20496;-44
2021/06/26 02:53:12;;;;;;;17.10;11.80;;;16.00;82.90;;;;;;5055217;28;20469;-44
2021/06/26 02:55:38;;;;;;;13.50;11.70;;;16.00;82.90;;;;;;5087876;28;20450;-44
2021/06/26 02:58:05;;;;;;;16.03;11.53;;;16.00;82.90;;;;;;5057638;28;20476;-44
2021/06/26 03:00:32;;;;;;;13.97;10.77;;;16.00;82.90;;;;;;5091518;28;20480;-43
2021/06/26 03:02:59;;;;;;;12.67;10.40;;;16.00;82.90;;;;;;5059287;28;20460;-44
2021/06/26 03:05:26;;;;;;;13.33;10.83;;;16.00;83.10;;;;;;5059903;28;20470;-43
2021/06/26 03:07:56;;;;;;;13.80;12.03;;;16.00;83.10;;;;;;5062725;28;20977;-43
2021/06/26 03:10:23;;;;;;;14.50;10.63;;;16.00;83.20;;;;;;5056232;28;20481;-44
2021/06/26 03:12:50;;;;;;;13.53;10.50;;;16.00;83.20;;;;;;5057600;28;20474;-43
2021/06/26 03:15:16;;;;;;;11.70;10.50;;;16.00;83.10;;;;;;5063718;28;20442;-44
2021/06/26 03:17:43;;;;;;;12.27;10.27;;;16.10;83.10;;;;;;5060827;28;21239;-44
2021/06/26 03:20:10;;;;;;;12.80;11.00;;;16.10;83.00;;;;;;5057980;28;20447;-44
2021/06/26 03:22:37;;;;;;;12.93;10.90;;;16.10;83.00;;;;;;5058202;28;20462;-43
2021/06/26 03:25:06;;;;;;;13.03;11.73;;;16.10;83.10;;;;;;5058523;28;20936;-43
2021/06/26 03:27:32;;;;;;;14.37;11.47;;;16.10;83.10;;;;;;5062178;28;20454;-44
2021/06/26 03:29:59;;;;;;;14.20;10.93;;;16.00;83.10;;;;;;5057086;28;20472;-44
2021/06/26 03:32:26;;;;;;;12.17;10.87;;;15.90;83.10;;;;;;5086315;28;20986;-44
2021/06/26 03:34:52;;;;;;;12.73;9.90;;;15.90;83.20;;;;;;5058845;28;20454;-44
2021/06/26 03:37:19;;;;;;;12.37;9.97;;;15.90;83.30;;;;;;5086673;28;20472;-43
2021/06/26 03:39:48;;;;;;;11.07;9.73;;;15.90;83.40;;;;;;5059734;28;20453;-43
2021/06/26 03:42:15;;;;;;;16.93;12.07;;;15.90;83.50;;;;;;5061388;28;20468;-44
2021/06/26 03:44:42;;;;;;;12.53;11.33;;;15.90;83.70;;;;;;5057802;28;20462;-43
2021/06/26 03:47:08;;;;;;;12.40;10.67;;;15.90;83.80;;;;;;5058610;28;20544;-44
2021/06/26 03:49:38;;;;;;;15.10;10.30;;;16.00;83.90;;;;;;5055797;28;20546;-44
2021/06/26 03:52:06;;;;;;;11.87;10.43;;;16.00;83.90;;;;;;5056401;28;20520;-43
2021/06/26 03:54:33;;;;;;;10.60;9.53;;;16.00;84.00;;;;;;5054963;28;20458;-44
2021/06/26 03:57:00;;;;;;;12.30;10.60;;;16.00;84.10;;;;;;5058131;28;20454;-44
2021/06/26 03:59:27;;;;;;;11.03;9.93;;;16.00;84.10;;;;;;5058923;28;20977;-44
2021/06/26 04:01:54;;;;;;;14.70;11.30;;;16.10;84.10;;;;;;5057698;28;20549;-44
2021/06/26 04:04:21;;;;;;;12.97;11.23;;;16.10;84.10;;;;;;5058182;28;20540;-43
2021/06/26 04:06:48;;;;;;;14.00;11.63;;;16.10;84.20;;;;;;5088715;27;20458;-44
2021/06/26 04:09:17;;;;;;;14.20;10.47;;;16.20;84.20;;;;;;5088157;28;20468;-44
2021/06/26 04:11:44;;;;;;;11.53;10.23;;;16.20;84.10;;;;;;5058175;28;21026;-44
2021/06/26 04:14:11;;;;;;;12.07;10.77;;;16.20;84.00;;;;;;5090226;28;20471;-43
2021/06/26 04:16:37;;;;;;;12.07;10.83;;;16.20;84.10;;;;;;5059174;28;21061;-43
2021/06/26 04:19:04;;;;;;;12.80;10.67;;;16.20;84.10;;;;;;5058485;28;20485;-43
2021/06/26 04:21:31;;;;;;;16.17;11.37;;;16.30;84.40;;;;;;5058794;28;20449;-43
2021/06/26 04:23:57;;;;;;;13.33;11.00;;;16.30;84.40;;;;;;5053624;28;20841;-44
2021/06/26 04:26:24;;;;;;;13.87;10.87;;;16.30;84.50;;;;;;5055790;28;20477;-44
2021/06/26 04:28:51;;;;;;;15.60;11.70;;;16.30;84.70;;;;;;5083918;28;20838;-43
2021/06/26 04:31:18;;;;;;;12.27;11.03;;;16.30;84.80;;;;;;5090412;28;20541;-44
2021/06/26 04:33:44;;;;;;;11.90;10.53;;;16.40;84.80;;;;;;5060089;28;20459;-44
2021/06/26 04:36:13;;;;;;;11.97;10.70;;;16.40;84.80;;;;;;5056237;28;20451;-43
2021/06/26 04:38:42;;;;;;;12.00;10.70;;;16.50;84.80;;;;;;5092227;28;20465;-44
2021/06/26 04:41:09;;;;;;;13.40;10.77;;;16.50;84.70;;;;;;5059977;28;20490;-44
2021/06/26 04:43:36;;;;;;;13.00;11.10;;;16.60;84.60;;;;;;5063923;28;20458;-43
2021/06/26 04:46:08;;;;;;;16.30;9.90;;;16.60;84.50;;;;;;5061179;28;20459;-44
2021/06/26 04:48:36;;;;;;;11.90;10.40;;;16.60;84.30;;;;;;5062990;28;20453;-44
2021/06/26 04:51:03;;;;;;;12.10;10.80;;;16.70;84.30;;;;;;5088632;27;20458;-43
2021/06/26 04:53:32;;;;;;;13.70;9.47;;;16.70;84.20;;;;;;5063628;28;20500;-43
2021/06/26 04:55:59;;;;;;;12.97;11.67;;;16.70;84.20;;;;;;5063104;28;20507;-43
2021/06/26 04:58:25;;;;;;;13.60;11.40;;;16.70;84.40;;;;;;5060347;28;20958;-43
2021/06/26 05:00:53;;;;;;;10.53;9.53;;;16.80;84.40;;;;;;5063530;28;20442;-44
2021/06/26 05:03:21;;;;;;;11.47;10.33;;;16.80;84.20;;;;;;5093285;28;20813;-43
2021/06/26 05:05:50;;;;;;;16.30;11.27;;;16.90;83.90;;;;;;5061706;28;20462;-43
2021/06/26 05:08:17;;;;;;;12.37;11.17;;;16.90;83.90;;;;;;5063321;28;20564;-43
2021/06/26 05:10:44;;;;;;;12.30;11.10;;;16.90;84.00;;;;;;5060919;28;20466;-44
2021/06/26 05:13:11;;;;;;;14.43;10.53;;;16.90;84.10;;;;;;5062188;28;20496;-44
2021/06/26 05:15:39;;;;;;;15.53;11.60;;;16.90;84.20;;;;;;5089390;27;20847;-44
2021/06/26 05:18:06;;;;;;;14.67;12.30;;;17.00;84.00;;;;;;5062950;28;20481;-44
2021/06/26 05:20:33;;;;;;;14.27;12.03;;;17.00;84.10;;;;;;5060072;28;20474;-44
2021/06/26 05:23:12;;;;;;;15.70;12.77;;;17.00;84.10;;;;;;5066238;28;20458;-43
2021/06/26 05:25:39;;;;;;;16.13;11.40;;;17.10;84.20;;;;;;5059169;28;20496;-43
2021/06/26 05:28:06;;;;;;;12.07;10.77;;;17.10;84.20;;;;;;5059816;28;20458;-43
2021/06/26 05:30:33;;;;;;;12.43;10.80;;;17.10;84.30;;;;;;5059228;28;20458;-44
2021/06/26 05:33:04;;;;;;;14.10;12.70;;;17.10;84.40;;;;;;5057363;28;20485;-44
2021/06/26 05:35:31;;;;;;;12.13;10.90;;;17.20;84.40;;;;;;5085958;27;20466;-44
2021/06/26 05:37:57;;;;;;;13.83;10.70;;;17.30;83.70;;;;;;5057225;28;20936;-44
2021/06/26 05:40:24;;;;;;;13.33;10.13;;;17.30;83.40;;;;;;5057474;28;20789;-43
2021/06/26 05:42:51;;;;;;;12.60;11.30;;;17.40;83.20;;;;;;5064979;28;20458;-43
2021/06/26 05:45:18;;;;;;;12.10;10.93;;;17.50;83.10;;;;;;5063642;28;20460;-44
2021/06/26 05:47:45;;;;;;;13.93;10.50;;;17.50;82.90;;;;;;5055328;28;20459;-43
2021/06/26 05:50:12;;;;;;;10.70;9.57;;;17.60;82.60;;;;;;5057135;28;20455;-43
2021/06/26 05:52:51;;;;;;;13.53;10.90;;;17.60;82.40;;;;;;5062278;28;20569;-44
2021/06/26 05:55:18;;;;;;;13.60;11.07;;;17.70;82.20;;;;;;5089706;28;20453;-44
2021/06/26 05:57:45;;;;;;;10.87;9.77;;;17.70;81.70;;;;;;5089684;27;20836;-44
2021/06/26 06:00:14;;;;;;;15.37;12.40;;;17.80;81.30;;;;;;5088075;27;20570;-43
2021/06/26 06:02:41;;;;;;;12.27;10.97;;;17.80;81.20;;;;;;5049960;28;20726;-44
2021/06/26 06:05:08;;;;;;;14.00;10.97;;;17.90;81.00;;;;;;5058091;28;20484;-44
2021/06/26 06:07:36;;;;;;;11.23;9.90;;;17.90;80.30;;;;;;5061231;28;20458;-43
2021/06/26 06:10:04;;;;;;;10.77;9.60;;;17.90;80.50;;;;;;5059259;28;20470;-44
2021/06/26 06:12:35;;;;;;;10.93;9.83;;;18.00;80.40;;;;;;5061405;28;20482;-44
2021/06/26 06:15:05;;;;;;;12.93;10.10;;;18.00;80.30;;;;;;5059071;28;20454;-44
2021/06/26 06:17:31;;;;;;;12.13;10.90;;;18.10;79.60;;;;;;5055193;28;20453;-44
2021/06/26 06:19:58;;;;;;;11.43;10.13;;;18.20;79.60;;;;;;5090257;28;20458;-43
2021/06/26 06:22:28;;;;;;;12.77;11.47;;;18.20;79.50;;;;;;5061486;28;20477;-43
2021/06/26 06:24:55;;;;;;;9.80;8.80;;;18.30;79.40;;;;;;5063263;28;20461;-43
2021/06/26 06:27:21;;;;;;;16.40;9.90;;;18.40;79.40;;;;;;5061566;28;20462;-43
2021/06/26 06:29:48;;;;;;;13.30;9.83;;;18.50;79.20;;;;;;5061992;28;20481;-45
2021/06/26 06:32:16;;;;;;;12.20;9.47;;;18.60;78.80;;;;;;5061933;28;20485;-45
2021/06/26 06:34:43;;;;;;;9.90;8.90;;;18.60;79.00;;;;;;5089733;28;20493;-44
2021/06/26 06:37:09;;;;;;;11.13;9.93;;;18.80;78.30;;;;;;5091035;28;20493;-44
2021/06/26 06:39:36;;;;;;;12.87;9.80;;;18.80;78.20;;;;;;5060600;28;20592;-43
2021/06/26 06:42:03;;;;;;;10.20;9.20;;;18.80;78.40;;;;;;5056399;28;20863;-44
2021/06/26 06:44:30;;;;;;;11.70;9.67;;;18.90;78.50;;;;;;5075023;28;20459;-44
2021/06/26 06:46:57;;;;;;;14.50;10.00;;;19.00;78.40;;;;;;5057924;28;21029;-43
2021/06/26 06:49:24;;;;;;;13.30;10.47;;;19.00;78.20;;;;;;5059480;28;20455;-44
2021/06/26 06:51:53;;;;;;;10.43;9.10;;;19.20;77.90;;;;;;5089434;27;20453;-44
2021/06/26 06:54:20;;;;;;;11.87;9.93;;;19.20;77.70;;;;;;5058555;28;20469;-44
2021/06/26 06:56:46;;;;;;;12.83;11.23;;;19.40;77.60;;;;;;5059218;28;20812;-43
2021/06/26 06:59:13;;;;;;;12.80;9.97;;;19.50;77.20;;;;;;5057474;28;20817;-44
2021/06/26 07:01:40;;;;;;;12.97;10.50;;;19.60;77.10;;;;;;5061607;28;20822;-43
2021/06/26 07:04:08;;;;;;;11.30;9.33;;;19.70;77.00;;;;;;5056885;28;20464;-43
2021/06/26 07:06:37;;;;;;;12.20;10.40;;;19.80;76.60;;;;;;5060766;28;20458;-44
2021/06/26 07:09:04;;;;;;;11.60;10.40;;;19.90;76.10;;;;;;5057949;28;21128;-43
2021/06/26 07:11:31;;;;;;;12.53;9.80;;;20.00;75.40;;;;;;5058126;28;20465;-44
2021/06/26 07:13:57;;;;;;;13.57;10.27;;;20.20;74.60;;;;;;5059199;28;20479;-44
2021/06/26 07:16:26;;;;;;;11.00;9.80;;;20.30;74.10;;;;;;5058933;28;20477;-44
2021/06/26 07:18:53;;;;;;;11.20;9.93;;;20.50;73.80;;;;;;5060926;28;22755;-43
2021/06/26 07:21:22;;;;;;;11.87;8.83;;;20.60;73.10;;;;;;5087278;28;21069;-43
2021/06/26 07:23:48;;;;;;;12.73;9.53;;;20.70;73.50;;;;;;5060222;28;20485;-43
2021/06/26 07:26:15;;;;;;;9.60;8.40;;;20.90;73.30;;;;;;5061904;28;20466;-43
2021/06/26 07:28:42;;;;;;;12.27;10.07;;;21.00;73.10;;;;;;5057464;28;20447;-44
2021/06/26 07:31:09;;;;;;;10.63;9.53;;;21.10;72.50;;;;;;5086684;28;20833;-43
2021/06/26 07:33:36;;;;;;;11.43;10.33;;;21.20;71.20;;;;;;5062792;28;20493;-44
2021/06/26 07:36:03;;;;;;;10.80;8.60;;;21.30;70.60;;;;;;5085506;28;20458;-44
2021/06/26 07:38:30;;;;;;;14.90;10.03;;;21.40;70.90;;;;;;5058105;28;20456;-44
2021/06/26 07:40:57;;;;;;;11.43;8.90;;;21.60;70.70;;;;;;5053874;28;20557;-43
2021/06/26 07:43:25;;;;;;;10.90;9.47;;;21.70;70.00;;;;;;5060120;28;20461;-43
2021/06/26 07:45:52;;;;;;;12.13;9.40;;;21.90;69.80;;;;;;5058962;28;20797;-44
2021/06/26 07:48:19;;;;;;;15.90;10.67;;;22.10;68.30;;;;;;5084224;28;20721;-44
2021/06/26 07:50:50;;;;;;;10.03;9.03;;;22.20;68.40;;;;;;5085874;28;20537;-43
2021/06/26 07:53:18;;;;;;;11.43;8.70;;;22.20;68.00;;;;;;5057327;28;21037;-44
2021/06/26 07:55:52;;;;;;;10.80;8.97;;;22.30;68.10;;;;;;5057021;28;20823;-44
2021/06/26 07:58:24;;;;;;;9.63;8.63;;;22.40;67.80;;;;;;5061749;28;20481;-44
2021/06/26 08:00:52;;;;;;;8.80;7.70;;;22.60;66.90;;;;;;5057917;28;20460;-44
2021/06/26 08:03:20;;;;;;;14.10;8.30;;;22.80;65.30;;;;;;5085099;28;20458;-44
2021/06/26 08:05:48;;;;;;;9.90;7.93;;;23.00;64.20;;;;;;5057779;28;20489;-44
2021/06/26 08:08:15;;;;;;;11.00;8.87;;;23.10;64.30;;;;;;5057290;28;20492;-44
2021/06/26 08:10:43;;;;;;;8.73;7.83;;;23.30;64.50;;;;;;5056674;28;20969;-44
2021/06/26 08:13:13;;;;;;;11.00;8.87;;;23.40;63.60;;;;;;5049780;28;20490;-44
2021/06/26 08:15:41;;;;;;;14.60;8.87;;;23.60;63.40;;;;;;5057909;28;20507;-44
2021/06/26 08:18:09;;;;;;;9.37;8.47;;;23.70;63.30;;;;;;5054917;28;20492;-44
2021/06/26 08:20:36;;;;;;;9.53;8.60;;;23.80;62.90;;;;;;5054508;28;20462;-44
2021/06/26 08:23:04;;;;;;;9.30;8.27;;;23.90;62.60;;;;;;5062075;28;20459;-45
2021/06/26 08:25:31;;;;;;;9.73;8.67;;;24.00;61.30;;;;;;5056612;28;20822;-44
2021/06/26 08:27:59;;;;;;;10.30;9.00;;;24.10;60.70;;;;;;5057255;28;21059;-44
2021/06/26 08:30:26;;;;;;;11.73;8.50;;;24.20;61.00;;;;;;5075925;28;20465;-44
2021/06/26 08:32:53;;;;;;;8.80;7.90;;;24.40;61.00;;;;;;5087618;28;20486;-44
2021/06/26 08:35:20;;;;;;;11.97;9.00;;;24.40;60.70;;;;;;5058338;28;20979;-45
2021/06/26 08:37:48;;;;;;;9.53;8.60;;;24.50;60.50;;;;;;5059103;28;20444;-44
2021/06/26 08:40:16;;;;;;;10.33;8.50;;;24.60;59.70;;;;;;5086405;28;20456;-44
2021/06/26 08:42:43;;;;;;;9.13;7.93;;;24.70;59.20;;;;;;5058440;28;20448;-44
2021/06/26 08:45:17;;;;;;;13.20;9.83;;;24.80;59.40;;;;;;5085090;28;20468;-44
2021/06/26 08:47:48;;;;;;;8.17;7.20;;;24.80;59.00;;;;;;5056740;28;20450;-44
2021/06/26 08:50:16;;;;;;;12.03;9.17;;;24.90;59.00;;;;;;5057179;28;20679;-44
2021/06/26 08:52:43;;;;;;;9.20;8.20;;;25.00;58.30;;;;;;5056755;28;20477;-45
2021/06/26 08:55:11;;;;;;;10.50;8.23;;;25.20;58.00;;;;;;5058753;28;20453;-44
2021/06/26 08:57:40;;;;;;;56.83;13.13;;;25.30;57.30;;;;;;5058776;28;20442;-45
2021/06/26 09:00:10;;;;;;;23.10;8.57;;;25.40;57.50;;;;;;5058403;28;20445;-44
2021/06/26 09:02:38;;;;;;;14.53;8.80;;;25.40;57.50;;;;;;5056713;28;20468;-44
2021/06/26 09:05:06;;;;;;;8.87;7.97;;;25.50;57.30;;;;;;5055888;28;20461;-44
2021/06/26 09:07:35;;;;;;;7.67;6.93;;;25.50;56.70;;;;;;5058497;28;20452;-44
2021/06/26 09:10:17;;;;;;;7.63;6.83;;;25.60;55.60;;;;;;5055957;28;20570;-45
2021/06/26 09:12:46;;;;;;;9.00;8.10;;;25.70;55.70;;;;;;5056558;28;20492;-44
2021/06/26 09:15:28;;;;;;;8.07;7.07;;;25.90;55.60;;;;;;5055749;28;20995;-45
2021/06/26 09:17:56;;;;;;;7.70;6.67;;;26.00;52.90;;;;;;5057485;28;20461;-45
2021/06/26 09:20:39;;;;;;;6.93;5.90;;;26.10;52.60;;;;;;5060052;28;20866;-45
2021/06/26 09:23:20;;;;;;;6.27;5.67;;;26.20;50.70;;;;;;5055745;28;20468;-45
2021/06/26 09:25:51;;;;;;;6.77;6.17;;;26.30;51.30;;;;;;5061736;28;20941;-45
2021/06/26 09:28:27;;;;;;;7.10;6.50;;;26.50;49.80;;;;;;5059429;28;20437;-45
2021/06/26 09:30:54;;;;;;;5.73;5.13;;;26.70;49.80;;;;;;5064030;28;20458;-44
2021/06/26 09:33:24;;;;;;;6.87;6.27;;;27.00;50.10;;;;;;5061578;28;20481;-45
2021/06/26 09:36:02;;;;;;;6.57;5.97;;;27.40;50.00;;;;;;5060346;28;20486;-45
2021/06/26 09:38:31;;;;;;;9.13;5.83;;;27.70;49.80;;;;;;5088146;28;20458;-45
2021/06/26 09:41:11;;;;;;;7.13;6.33;;;28.10;48.70;;;;;;5088612;28;20468;-44
2021/06/26 09:43:37;;;;;;;7.03;6.33;;;28.30;46.80;;;;;;5061289;28;20451;-45
2021/06/26 09:46:13;;;;;;;5.60;5.10;;;28.50;46.40;;;;;;5059045;28;20909;-45
2021/06/26 09:48:52;;;;;;;6.93;5.70;;;28.60;46.50;;;;;;5059794;28;20257;-44
2021/06/26 09:51:26;;;;;;;6.43;5.00;;;28.60;46.60;;;;;;5059047;28;20446;-44
2021/06/26 09:54:04;;;;;;;6.80;5.07;;;28.70;46.90;;;;;;5056164;28;20599;-45
2021/06/26 09:56:46;;;;;;;6.23;5.07;;;28.60;45.90;;;;;;5065582;28;20698;-44
2021/06/26 09:59:17;;;;;;;6.00;5.50;;;28.40;45.60;;;;;;5061808;28;20993;-45
2021/06/26 10:01:46;;;;;;;6.13;5.23;;;28.10;45.70;;;;;;5062189;28;20962;-45
2021/06/26 10:04:14;;;;;;;5.63;5.13;;;27.90;45.90;;;;;;5056865;28;20573;-45
2021/06/26 10:06:43;;;;;;;5.50;5.00;;;27.80;46.10;;;;;;5059067;28;20446;-44
2021/06/26 10:09:10;;;;;;;5.43;4.93;;;27.70;46.60;;;;;;5059862;28;21174;-44
2021/06/26 10:11:39;;;;;;;5.20;4.70;;;27.60;46.30;;;;;;5059839;28;20458;-45
2021/06/26 10:14:11;;;;;;;4.80;4.40;;;27.50;46.10;;;;;;5060984;28;20503;-44
2021/06/26 10:16:41;;;;;;;5.47;4.80;;;27.40;45.40;;;;;;5059231;28;20442;-44
2021/06/26 10:19:10;;;;;;;4.40;4.00;;;27.30;45.50;;;;;;5085558;27;20894;-44
2021/06/26 10:21:38;;;;;;;4.30;3.90;;;27.00;46.50;;;;;;5062030;28;20495;-44
2021/06/26 10:24:12;;;;;;;5.10;4.60;;;26.60;45.70;;;;;;5086554;28;20473;-45
2021/06/26 10:26:41;;;;;;;5.17;4.67;;;26.40;46.50;;;;;;5061159;28;20956;-45
2021/06/26 10:29:07;;;;;;;5.13;4.43;;;26.30;47.90;;;;;;5061727;28;20915;-45
2021/06/26 10:31:43;;;;;;;5.67;4.90;;;26.20;48.10;;;;;;5064414;28;20449;-44
2021/06/26 10:34:12;;;;;;;6.03;5.00;;;26.20;49.50;;;;;;5058913;28;20477;-45
2021/06/26 10:36:40;;;;;;;5.23;4.70;;;26.00;50.20;;;;;;5058781;28;20460;-44
2021/06/26 10:39:39;;;;;;;5.23;4.73;;;25.70;49.30;;;;;;5060988;28;20450;-45
2021/06/26 10:42:14;;;;;;;4.87;4.13;;;25.60;49.70;;;;;;5042528;28;20450;-45
2021/06/26 10:44:52;;;;;;;5.63;4.20;;;25.50;49.50;;;;;;5061898;28;20830;-45
2021/06/26 10:47:36;;;;;;;6.03;4.43;;;25.30;49.70;;;;;;5060504;28;20461;-44
2021/06/26 10:50:17;;;;;;;5.43;4.93;;;25.30;49.90;;;;;;5057897;28;20472;-45
2021/06/26 10:52:57;;;;;;;6.00;4.63;;;25.20;51.20;;;;;;5058513;28;20471;-44
2021/06/26 10:55:36;;;;;;;7.63;4.77;;;25.20;50.20;;;;;;5064533;28;20446;-44
2021/06/26 10:58:07;;;;;;;5.10;4.60;;;25.20;49.60;;;;;;5087388;28;20445;-44
2021/06/26 11:00:40;;;;;;;4.80;4.40;;;25.20;50.20;;;;;;5058031;28;20441;-44
2021/06/26 11:03:20;;;;;;;5.07;4.67;;;25.20;50.20;;;;;;5059795;28;21021;-45
2021/06/26 11:05:47;;;;;;;5.60;5.10;;;25.20;48.60;;;;;;5058309;28;20452;-44
2021/06/26 11:08:15;;;;;;;5.70;4.90;;;25.20;48.80;;;;;;5090367;28;20956;-45
2021/06/26 11:10:59;;;;;;;4.50;4.10;;;25.30;49.20;;;;;;5056253;28;20533;-46
2021/06/26 11:13:28;;;;;;;5.57;5.17;;;25.30;49.60;;;;;;5064110;28;20489;-45
2021/06/26 11:16:02;;;;;;;6.83;4.90;;;25.20;49.40;;;;;;5058462;28;20433;-46
2021/06/26 11:18:29;;;;;;;4.50;4.10;;;25.20;49.60;;;;;;5059513;28;20473;-46
2021/06/26 11:20:58;;;;;;;4.57;4.17;;;25.00;48.90;;;;;;5059617;28;20814;-46
2021/06/26 11:23:25;;;;;;;5.77;5.17;;;25.10;49.40;;;;;;5061000;28;20472;-44
2021/06/26 11:25:59;;;;;;;4.60;4.30;;;25.20;51.20;;;;;;5061957;28;20457;-46
2021/06/26 11:28:25;;;;;;;4.50;4.10;;;25.10;51.40;;;;;;5056507;28;20460;-42
2021/06/26 11:31:01;;;;;;;5.93;5.00;;;25.00;52.60;;;;;;5057741;28;20489;-43
2021/06/26 11:33:42;;;;;;;5.40;4.40;;;24.90;54.00;;;;;;5059548;28;20510;-46
2021/06/26 11:36:11;;;;;;;4.90;4.50;;;24.80;51.60;;;;;;5065323;28;20448;-45
2021/06/26 11:38:38;;;;;;;8.00;4.80;;;24.80;50.40;;;;;;5062098;28;20445;-46
2021/06/26 11:41:11;;;;;;;5.13;4.60;;;24.70;50.20;;;;;;5062071;28;20730;-45
2021/06/26 11:43:46;;;;;;;4.80;4.40;;;24.80;50.40;;;;;;5059574;28;20454;-46
2021/06/26 11:46:14;;;;;;;6.93;5.37;;;24.80;52.90;;;;;;5059774;28;20446;-46
2021/06/26 11:48:49;;;;;;;8.57;5.10;;;25.00;52.60;;;;;;5055974;28;20486;-46
2021/06/26 11:51:16;;;;;;;5.17;4.67;;;25.00;52.60;;;;;;5070782;28;20469;-46
2021/06/26 11:53:43;;;;;;;6.83;4.43;;;25.00;52.80;;;;;;5087740;28;20993;-45
2021/06/26 11:56:14;;;;;;;5.10;4.70;;;25.00;52.70;;;;;;5058604;28;20475;-45
2021/06/26 11:58:47;;;;;;;6.10;5.20;;;24.90;52.80;;;;;;5054481;28;20465;-45
2021/06/26 12:01:32;;;;;;;4.90;4.50;;;24.90;52.50;;;;;;5056407;28;20475;-45
2021/06/26 12:04:03;;;;;;;6.93;4.83;;;24.80;53.20;;;;;;5057988;28;20503;-45
2021/06/26 12:06:32;;;;;;;6.07;5.47;;;24.80;53.40;;;;;;5060807;28;20792;-43
2021/06/26 12:08:59;;;;;;;5.07;4.57;;;24.80;52.80;;;;;;5059403;28;20949;-45
2021/06/26 12:11:35;;;;;;;4.50;4.17;;;24.80;52.10;;;;;;5091352;28;20464;-45
2021/06/26 12:14:02;;;;;;;5.50;4.23;;;24.70;52.60;;;;;;5059500;28;20514;-45
2021/06/26 12:16:35;;;;;;;4.73;4.20;;;24.80;51.40;;;;;;5059309;28;20441;-45
2021/06/26 12:19:08;;;;;;;4.90;4.50;;;24.70;52.30;;;;;;5087742;28;20492;-43
2021/06/26 12:21:53;;;;;;;6.23;5.17;;;24.80;51.90;;;;;;5058739;28;20459;-46
2021/06/26 12:24:41;;;;;;;5.57;5.07;;;24.80;53.80;;;;;;5089101;28;21088;-46
2021/06/26 12:27:11;;;;;;;5.33;4.90;;;24.80;52.10;;;;;;5058487;28;20460;-46
2021/06/26 12:29:41;;;;;;;4.10;3.80;;;24.80;53.50;;;;;;5058257;28;20437;-45
2021/06/26 12:32:08;;;;;;;5.90;3.57;;;24.80;52.60;;;;;;5059124;28;20818;-45
2021/06/26 12:34:46;;;;;;;3.97;3.57;;;24.80;51.30;;;;;;5060669;28;20556;-43
2021/06/26 12:37:13;;;;;;;4.43;3.80;;;24.80;51.20;;;;;;5089553;28;20445;-44
2021/06/26 12:39:41;;;;;;;4.30;3.90;;;24.70;51.70;;;;;;5057930;28;20453;-43
2021/06/26 12:42:12;;;;;;;4.50;4.17;;;24.70;53.00;;;;;;5057838;28;20957;-45
2021/06/26 12:44:40;;;;;;;4.90;4.50;;;24.70;53.80;;;;;;5055238;28;20738;-46
2021/06/26 12:47:08;;;;;;;4.43;4.00;;;24.70;53.30;;;;;;5058900;28;20895;-44